createdAt,value
2018-07-23T00:00:59.885Z,15.92
2018-07-23T00:02:07.964Z,15.92
2018-07-23T00:03:16.054Z,15.94
2018-07-23T00:04:24.090Z,15.91
2018-07-23T00:05:32.159Z,15.81
2018-07-23T00:06:40.231Z,15.88
2018-07-23T00:07:48.293Z,15.91
2018-07-23T00:08:56.342Z,15.92
2018-07-23T00:10:04.433Z,15.98
2018-07-23T00:11:12.479Z,15.92
2018-07-23T00:12:21.611Z,15.88
2018-07-23T00:13:28.646Z,15.90
2018-07-23T00:14:36.678Z,16.00
2018-07-23T00:15:45.084Z,15.94
2018-07-23T00:16:53.125Z,15.96
2018-07-23T00:18:01.392Z,16.02
2018-07-23T00:19:09.133Z,15.99
2018-07-23T00:20:17.235Z,15.98
2018-07-23T00:21:25.270Z,15.90
2018-07-23T00:22:33.369Z,15.99
2018-07-23T00:23:41.423Z,15.92
2018-07-23T00:24:49.484Z,16.02
2018-07-23T00:25:57.550Z,15.96
2018-07-23T00:27:05.634Z,15.92
2018-07-23T00:28:13.690Z,15.92
2018-07-23T00:29:21.741Z,15.84
2018-07-23T00:30:29.795Z,15.91
2018-07-23T00:31:37.873Z,15.90
2018-07-23T00:32:45.936Z,15.83
2018-07-23T00:33:54.007Z,15.85
2018-07-23T00:35:02.168Z,15.90
2018-07-23T00:36:10.120Z,15.85
2018-07-23T00:37:18.349Z,15.85
2018-07-23T00:38:26.257Z,15.87
2018-07-23T00:39:34.447Z,15.91
2018-07-23T00:40:42.667Z,15.92
2018-07-23T00:41:50.463Z,15.92
2018-07-23T00:42:58.541Z,15.90
2018-07-23T00:44:06.611Z,15.87
2018-07-23T00:45:14.680Z,15.90
2018-07-23T00:46:22.727Z,15.84
2018-07-23T00:47:30.786Z,15.85
2018-07-23T00:48:38.868Z,15.85
2018-07-23T00:49:46.955Z,15.87
2018-07-23T00:50:54.992Z,15.87
2018-07-23T00:52:03.086Z,15.94
2018-07-23T00:53:11.267Z,15.99
2018-07-23T00:54:19.189Z,15.92
2018-07-23T00:55:27.256Z,15.91
2018-07-23T00:56:35.311Z,15.92
2018-07-23T00:57:43.381Z,15.98
2018-07-23T00:58:51.466Z,15.87
2018-07-23T00:59:59.526Z,15.80
2018-07-23T01:01:07.791Z,15.87
2018-07-23T01:02:15.863Z,15.84
2018-07-23T01:03:23.927Z,15.84
2018-07-23T01:04:31.990Z,15.88
2018-07-23T01:05:40.084Z,15.85
2018-07-23T01:06:48.143Z,15.83
2018-07-23T01:07:56.179Z,15.84
2018-07-23T01:09:04.246Z,15.76
2018-07-23T01:10:12.306Z,15.91
2018-07-23T01:11:20.397Z,15.88
2018-07-23T01:12:28.743Z,15.85
2018-07-23T01:13:36.736Z,15.87
2018-07-23T01:14:45.093Z,15.85
2018-07-23T01:15:52.844Z,15.83
2018-07-23T01:17:00.939Z,15.91
2018-07-23T01:18:10.009Z,15.88
2018-07-23T01:19:17.067Z,15.85
2018-07-23T01:20:25.315Z,15.96
2018-07-23T01:21:33.387Z,15.83
2018-07-23T01:22:41.448Z,15.90
2018-07-23T01:23:49.533Z,15.91
2018-07-23T01:24:57.634Z,15.91
2018-07-23T01:26:05.756Z,15.90
2018-07-23T01:27:13.731Z,15.88
2018-07-23T01:28:21.794Z,15.87
2018-07-23T01:29:29.835Z,15.90
2018-07-23T01:30:37.920Z,15.83
2018-07-23T01:31:45.984Z,15.91
2018-07-23T01:32:54.054Z,15.91
2018-07-23T01:34:03.374Z,15.96
2018-07-23T01:35:10.378Z,15.99
2018-07-23T01:36:18.535Z,16.00
2018-07-23T01:37:26.607Z,15.91
2018-07-23T01:38:34.783Z,15.94
2018-07-23T01:39:42.876Z,15.84
2018-07-23T01:40:51.131Z,15.87
2018-07-23T01:41:59.241Z,15.91
2018-07-23T01:43:07.256Z,16.03
2018-07-23T01:44:15.283Z,15.94
2018-07-23T01:45:23.382Z,15.94
2018-07-23T01:46:31.456Z,15.87
2018-07-23T01:47:39.528Z,15.84
2018-07-23T01:48:47.566Z,15.87
2018-07-23T01:49:55.635Z,15.85
2018-07-23T01:51:03.921Z,15.92
2018-07-23T01:52:11.987Z,15.87
2018-07-23T01:53:20.099Z,15.85
2018-07-23T01:54:28.111Z,15.85
2018-07-23T01:55:36.175Z,15.94
2018-07-23T01:56:44.264Z,15.92
2018-07-23T01:57:52.328Z,15.85
2018-07-23T01:59:00.415Z,15.90
2018-07-23T02:00:09.074Z,15.88
2018-07-23T02:01:17.124Z,15.85
2018-07-23T02:02:25.231Z,15.84
2018-07-23T02:03:33.251Z,15.90
2018-07-23T02:04:41.337Z,15.84
2018-07-23T02:05:49.395Z,15.80
2018-07-23T02:06:57.565Z,15.83
2018-07-23T02:08:05.529Z,15.76
2018-07-23T02:09:13.635Z,15.81
2018-07-23T02:10:21.653Z,15.85
2018-07-23T02:11:30.094Z,15.88
2018-07-23T02:12:37.788Z,15.88
2018-07-23T02:13:45.875Z,15.91
2018-07-23T02:14:53.923Z,15.88
2018-07-23T02:16:02.002Z,15.90
2018-07-23T02:17:10.087Z,15.80
2018-07-23T02:18:18.170Z,15.87
2018-07-23T02:19:26.173Z,15.80
2018-07-23T02:20:34.257Z,15.85
2018-07-23T02:21:42.330Z,15.78
2018-07-23T02:22:50.379Z,15.87
2018-07-23T02:23:58.463Z,15.78
2018-07-23T02:25:06.532Z,15.80
2018-07-23T02:26:14.599Z,15.84
2018-07-23T02:27:22.646Z,15.75
2018-07-23T02:28:30.716Z,15.78
2018-07-23T02:29:38.792Z,15.78
2018-07-23T02:30:46.844Z,15.70
2018-07-23T02:31:54.899Z,15.69
2018-07-23T02:33:03.107Z,15.75
2018-07-23T02:34:11.042Z,15.70
2018-07-23T02:35:19.665Z,15.69
2018-07-23T02:36:27.377Z,15.60
2018-07-23T02:37:35.432Z,15.63
2018-07-23T02:38:44.976Z,15.65
2018-07-23T02:39:51.876Z,15.66
2018-07-23T02:40:59.850Z,15.67
2018-07-23T02:42:08.625Z,15.73
2018-07-23T02:43:16.385Z,15.76
2018-07-23T02:44:24.437Z,15.66
2018-07-23T02:45:32.492Z,15.65
2018-07-23T02:46:40.584Z,15.63
2018-07-23T02:47:48.651Z,15.62
2018-07-23T02:48:56.728Z,15.60
2018-07-23T02:50:05.163Z,15.57
2018-07-23T02:51:12.883Z,15.59
2018-07-23T02:52:20.914Z,15.54
2018-07-23T02:53:28.976Z,15.55
2018-07-23T02:54:37.054Z,15.60
2018-07-23T02:55:46.348Z,15.66
2018-07-23T02:56:53.450Z,15.66
2018-07-23T02:58:01.461Z,15.72
2018-07-23T02:59:10.565Z,15.63
2018-07-23T03:00:17.589Z,15.52
2018-07-23T03:01:25.651Z,15.59
2018-07-23T03:02:33.712Z,15.57
2018-07-23T03:03:41.847Z,15.54
2018-07-23T03:04:49.883Z,15.50
2018-07-23T03:05:57.908Z,15.52
2018-07-23T03:07:05.972Z,15.48
2018-07-23T03:08:14.048Z,15.51
2018-07-23T03:09:23.359Z,15.51
2018-07-23T03:10:30.172Z,15.51
2018-07-23T03:11:38.245Z,15.45
2018-07-23T03:12:46.309Z,15.50
2018-07-23T03:13:54.373Z,15.51
2018-07-23T03:15:02.463Z,15.48
2018-07-23T03:16:10.483Z,15.50
2018-07-23T03:17:18.613Z,15.48
2018-07-23T03:18:26.686Z,15.45
2018-07-23T03:19:34.687Z,15.52
2018-07-23T03:20:42.788Z,15.37
2018-07-23T03:21:51.251Z,15.51
2018-07-23T03:22:58.900Z,15.36
2018-07-23T03:24:06.963Z,15.37
2018-07-23T03:25:15.287Z,15.36
2018-07-23T03:26:23.290Z,15.37
2018-07-23T03:27:31.360Z,15.33
2018-07-23T03:28:39.446Z,15.37
2018-07-23T03:29:47.501Z,15.36
2018-07-23T03:30:55.544Z,15.32
2018-07-23T03:32:03.627Z,15.32
2018-07-23T03:33:11.691Z,15.29
2018-07-23T03:34:19.756Z,15.32
2018-07-23T03:35:27.822Z,15.32
2018-07-23T03:36:35.879Z,15.35
2018-07-23T03:37:43.954Z,15.35
2018-07-23T03:38:52.020Z,15.35
2018-07-23T03:40:00.079Z,15.37
2018-07-23T03:41:08.156Z,15.36
2018-07-23T03:42:16.216Z,15.33
2018-07-23T03:43:24.290Z,15.26
2018-07-23T03:44:32.366Z,15.26
2018-07-23T03:45:40.442Z,15.22
2018-07-23T03:46:48.502Z,15.22
2018-07-23T03:47:56.558Z,15.23
2018-07-23T03:49:04.616Z,15.18
2018-07-23T03:50:12.673Z,15.18
2018-07-23T03:51:20.787Z,15.19
2018-07-23T03:52:28.814Z,15.19
2018-07-23T03:53:36.877Z,15.10
2018-07-23T03:54:44.950Z,15.10
2018-07-23T03:55:53.314Z,15.08
2018-07-23T03:57:01.105Z,15.19
2018-07-23T03:58:09.269Z,15.10
2018-07-23T03:59:17.232Z,15.17
2018-07-23T04:00:25.605Z,15.12
2018-07-23T04:01:33.363Z,15.14
2018-07-23T04:02:41.427Z,15.11
2018-07-23T04:03:49.512Z,15.11
2018-07-23T04:04:57.563Z,15.08
2018-07-23T04:06:05.706Z,15.02
2018-07-23T04:07:13.689Z,15.02
2018-07-23T04:08:21.758Z,15.10
2018-07-23T04:09:29.844Z,15.11
2018-07-23T04:10:37.940Z,15.14
2018-07-23T04:11:45.958Z,15.18
2018-07-23T04:12:54.035Z,15.18
2018-07-23T04:14:02.083Z,15.19
2018-07-23T04:15:10.166Z,15.19
2018-07-23T04:16:18.232Z,15.22
2018-07-23T04:17:26.309Z,15.32
2018-07-23T04:18:34.362Z,15.19
2018-07-23T04:19:42.419Z,15.29
2018-07-23T04:20:50.476Z,15.25
2018-07-23T04:21:58.558Z,15.36
2018-07-23T04:23:06.642Z,15.33
2018-07-23T04:24:14.965Z,15.35
2018-07-23T04:25:22.757Z,15.50
2018-07-23T04:26:30.808Z,15.48
2018-07-23T04:27:38.935Z,15.51
2018-07-23T04:28:46.940Z,15.37
2018-07-23T04:29:55.054Z,15.36
2018-07-23T04:31:03.121Z,15.41
2018-07-23T04:32:11.124Z,15.45
2018-07-23T04:33:19.240Z,15.50
2018-07-23T04:34:27.275Z,15.51
2018-07-23T04:35:35.354Z,15.50
2018-07-23T04:36:44.177Z,15.54
2018-07-23T04:37:51.551Z,15.65
2018-07-23T04:38:59.665Z,15.66
2018-07-23T04:40:07.604Z,15.63
2018-07-23T04:41:16.369Z,15.67
2018-07-23T04:42:23.798Z,15.80
2018-07-23T04:43:31.791Z,15.72
2018-07-23T04:44:39.868Z,15.69
2018-07-23T04:45:48.004Z,15.81
2018-07-23T04:46:55.992Z,15.78
2018-07-23T04:48:04.903Z,15.92
2018-07-23T04:49:12.186Z,15.83
2018-07-23T04:50:20.216Z,15.83
2018-07-23T04:51:28.263Z,15.88
2018-07-23T04:52:36.338Z,15.94
2018-07-23T04:53:44.413Z,15.92
2018-07-23T04:54:52.997Z,15.92
2018-07-23T04:56:00.769Z,15.94
2018-07-23T04:57:08.604Z,16.03
2018-07-23T04:58:16.664Z,16.12
2018-07-23T04:59:24.750Z,16.08
2018-07-23T05:00:32.815Z,16.21
2018-07-23T05:01:40.870Z,16.16
2018-07-23T05:02:48.976Z,16.18
2018-07-23T05:03:57.016Z,16.29
2018-07-23T05:05:05.075Z,16.36
2018-07-23T05:06:13.135Z,16.41
2018-07-23T05:07:21.518Z,16.40
2018-07-23T05:08:29.578Z,16.39
2018-07-23T05:09:38.718Z,16.50
2018-07-23T05:10:45.387Z,16.50
2018-07-23T05:11:53.789Z,16.59
2018-07-23T05:13:01.848Z,16.64
2018-07-23T05:14:09.606Z,16.62
2018-07-23T05:15:17.671Z,16.69
2018-07-23T05:16:26.358Z,16.72
2018-07-23T05:17:33.811Z,16.76
2018-07-23T05:18:41.881Z,16.73
2018-07-23T05:19:49.929Z,16.74
2018-07-23T05:20:58.012Z,16.68
2018-07-23T05:22:06.061Z,16.76
2018-07-23T05:23:14.166Z,16.77
2018-07-23T05:24:22.213Z,16.77
2018-07-23T05:25:30.428Z,16.86
2018-07-23T05:26:38.352Z,16.82
2018-07-23T05:27:46.677Z,16.91
2018-07-23T05:28:54.676Z,16.94
2018-07-23T05:30:02.782Z,16.91
2018-07-23T05:31:10.883Z,16.94
2018-07-23T05:32:18.902Z,16.95
2018-07-23T05:33:26.948Z,17.04
2018-07-23T05:34:35.036Z,16.99
2018-07-23T05:35:43.418Z,17.10
2018-07-23T05:36:51.160Z,17.07
2018-07-23T05:37:59.247Z,17.07
2018-07-23T05:39:07.708Z,17.05
2018-07-23T05:40:15.827Z,17.12
2018-07-23T05:41:23.849Z,17.16
2018-07-23T05:42:31.911Z,17.24
2018-07-23T05:43:39.978Z,17.17
2018-07-23T05:44:48.041Z,17.24
2018-07-23T05:45:56.140Z,17.22
2018-07-23T05:47:04.196Z,17.34
2018-07-23T05:48:12.457Z,17.31
2018-07-23T05:49:20.522Z,17.30
2018-07-23T05:50:28.601Z,17.27
2018-07-23T05:51:36.644Z,17.22
2018-07-23T05:52:44.723Z,17.22
2018-07-23T05:53:52.800Z,17.30
2018-07-23T05:55:00.880Z,17.19
2018-07-23T05:56:09.257Z,17.22
2018-07-23T05:57:16.999Z,17.23
2018-07-23T05:58:25.057Z,17.35
2018-07-23T05:59:33.133Z,17.41
2018-07-23T06:00:41.216Z,17.39
2018-07-23T06:01:49.261Z,17.39
2018-07-23T06:02:57.360Z,17.46
2018-07-23T06:04:05.401Z,17.42
2018-07-23T06:05:13.490Z,17.42
2018-07-23T06:06:21.555Z,17.49
2018-07-23T06:07:29.656Z,17.44
2018-07-23T06:08:37.687Z,17.49
2018-07-23T06:09:45.737Z,17.57
2018-07-23T06:10:53.808Z,17.53
2018-07-23T06:12:01.882Z,17.57
2018-07-23T06:13:10.214Z,17.54
2018-07-23T06:14:18.029Z,17.69
2018-07-23T06:15:26.076Z,17.71
2018-07-23T06:16:34.154Z,17.80
2018-07-23T06:17:42.255Z,17.86
2018-07-23T06:18:50.496Z,17.93
2018-07-23T06:19:58.793Z,18.03
2018-07-23T06:21:09.471Z,18.02
2018-07-23T06:22:16.093Z,18.03
2018-07-23T06:23:24.168Z,18.16
2018-07-23T06:24:33.241Z,18.21
2018-07-23T06:25:42.161Z,18.24
2018-07-23T06:26:55.763Z,18.26
2018-07-23T06:28:01.738Z,18.31
2018-07-23T06:29:07.740Z,18.45
2018-07-23T06:30:15.779Z,18.52
2018-07-23T06:31:23.855Z,18.49
2018-07-23T06:32:31.934Z,18.55
2018-07-23T06:33:41.662Z,18.48
2018-07-23T06:34:49.683Z,18.61
2018-07-23T06:35:57.848Z,18.60
2018-07-23T06:37:05.801Z,18.66
2018-07-23T06:38:13.898Z,18.73
2018-07-23T06:39:21.975Z,18.70
2018-07-23T06:40:30.032Z,18.82
2018-07-23T06:41:38.088Z,18.82
2018-07-23T06:42:46.153Z,18.82
2018-07-23T06:43:56.440Z,18.79
2018-07-23T06:45:04.514Z,18.94
2018-07-23T06:46:12.587Z,18.98
2018-07-23T06:47:20.670Z,18.97
2018-07-23T06:48:28.730Z,19.01
2018-07-23T06:49:36.961Z,19.05
2018-07-23T06:50:46.285Z,19.08
2018-07-23T06:51:53.123Z,19.16
2018-07-23T06:53:01.191Z,19.08
2018-07-23T06:54:09.309Z,19.15
2018-07-23T06:55:17.347Z,19.05
2018-07-23T06:56:25.400Z,19.15
2018-07-23T06:57:33.469Z,19.16
2018-07-23T06:58:41.756Z,19.26
2018-07-23T06:59:49.807Z,19.24
2018-07-23T07:00:57.904Z,19.23
2018-07-23T07:02:05.941Z,19.32
2018-07-23T07:03:14.090Z,19.47
2018-07-23T07:04:22.213Z,19.35
2018-07-23T07:05:36.427Z,19.39
2018-07-23T07:06:44.553Z,19.24
2018-07-23T07:07:52.639Z,19.26
2018-07-23T07:09:00.643Z,19.23
2018-07-23T07:10:08.708Z,19.42
2018-07-23T07:11:16.930Z,19.34
2018-07-23T07:12:24.851Z,19.41
2018-07-23T07:13:33.027Z,19.48
2018-07-23T07:14:40.979Z,19.39
2018-07-23T07:15:49.113Z,19.49
2018-07-23T07:16:57.330Z,19.41
2018-07-23T07:18:05.423Z,19.56
2018-07-23T07:19:13.467Z,19.56
2018-07-23T07:20:21.807Z,19.55
2018-07-23T07:21:29.605Z,19.59
2018-07-23T07:22:37.658Z,19.70
2018-07-23T07:23:45.762Z,19.66
2018-07-23T07:24:53.825Z,19.62
2018-07-23T07:26:01.932Z,19.56
2018-07-23T07:27:09.958Z,19.67
2018-07-23T07:28:18.044Z,19.56
2018-07-23T07:29:26.216Z,19.45
2018-07-23T07:30:34.175Z,19.41
2018-07-23T07:31:42.226Z,19.38
2018-07-23T07:32:50.290Z,19.30
2018-07-23T07:33:58.377Z,19.23
2018-07-23T07:35:06.765Z,19.08
2018-07-23T07:36:14.509Z,19.12
2018-07-23T07:37:22.572Z,19.00
2018-07-23T07:38:30.650Z,19.01
2018-07-23T07:39:38.728Z,19.00
2018-07-23T07:40:46.795Z,18.94
2018-07-23T07:41:55.126Z,18.97
2018-07-23T07:43:02.942Z,18.94
2018-07-23T07:44:11.071Z,19.07
2018-07-23T07:45:19.071Z,19.11
2018-07-23T07:46:27.204Z,19.23
2018-07-23T07:47:35.207Z,19.27
2018-07-23T07:48:43.284Z,19.37
2018-07-23T07:49:52.594Z,19.38
2018-07-23T07:50:59.636Z,19.24
2018-07-23T07:52:07.736Z,19.32
2018-07-23T07:53:15.753Z,19.22
2018-07-23T07:54:23.840Z,19.16
2018-07-23T07:55:31.931Z,19.22
2018-07-23T07:56:39.985Z,19.37
2018-07-23T07:57:48.069Z,19.59
2018-07-23T07:58:56.127Z,19.84
2018-07-23T08:00:04.329Z,20.24
2018-07-23T08:01:12.258Z,20.34
2018-07-23T08:02:20.602Z,20.42
2018-07-23T08:03:28.745Z,20.55
2018-07-23T08:04:36.701Z,20.36
2018-07-23T08:05:44.752Z,20.64
2018-07-23T08:06:52.879Z,20.86
2018-07-23T08:08:00.888Z,21.25
2018-07-23T08:09:09.279Z,21.56
2018-07-23T08:10:17.036Z,21.72
2018-07-23T08:11:25.084Z,21.74
2018-07-23T08:12:33.192Z,21.83
2018-07-23T08:13:41.272Z,21.77
2018-07-23T08:14:49.309Z,21.94
2018-07-23T08:16:00.059Z,22.06
2018-07-23T08:17:09.150Z,22.01
2018-07-23T08:18:20.485Z,21.74
2018-07-23T08:19:28.737Z,21.58
2018-07-23T08:20:36.538Z,21.58
2018-07-23T08:21:52.369Z,21.44
2018-07-23T08:23:00.751Z,21.45
2018-07-23T08:24:10.607Z,21.43
2018-07-23T08:25:19.134Z,21.63
2018-07-23T08:26:26.573Z,21.96
2018-07-23T08:27:36.787Z,22.10
2018-07-23T08:28:42.705Z,22.22
2018-07-23T08:30:06.547Z,22.28
2018-07-23T08:31:07.364Z,22.38
2018-07-23T08:32:18.280Z,22.52
2018-07-23T08:33:23.943Z,22.49
2018-07-23T08:34:27.921Z,22.28
2018-07-23T08:35:35.950Z,22.19
2018-07-23T08:36:44.045Z,22.30
2018-07-23T08:37:52.133Z,22.12
2018-07-23T08:39:00.237Z,22.00
2018-07-23T08:40:08.265Z,21.92
2018-07-23T08:41:16.346Z,21.56
2018-07-23T08:42:24.479Z,21.77
2018-07-23T08:43:32.474Z,22.06
2018-07-23T08:44:40.568Z,21.92
2018-07-23T08:45:48.735Z,21.70
2018-07-23T08:46:56.974Z,21.80
2018-07-23T08:48:04.798Z,22.14
2018-07-23T08:49:13.271Z,22.28
2018-07-23T08:50:21.141Z,22.30
2018-07-23T08:51:31.224Z,22.65
2018-07-23T08:52:37.280Z,22.62
2018-07-23T08:53:45.408Z,22.59
2018-07-23T08:54:53.433Z,22.61
2018-07-23T08:56:01.797Z,22.98
2018-07-23T08:57:09.774Z,22.91
2018-07-23T08:58:17.961Z,22.96
2018-07-23T08:59:26.166Z,23.21
2018-07-23T09:00:34.020Z,23.06
2018-07-23T09:01:42.065Z,22.96
2018-07-23T09:02:50.191Z,22.84
2018-07-23T09:03:58.235Z,22.62
2018-07-23T09:05:06.304Z,22.58
2018-07-23T09:06:14.432Z,22.74
2018-07-23T09:07:22.462Z,22.53
2018-07-23T09:08:30.612Z,22.56
2018-07-23T09:09:38.590Z,22.93
2018-07-23T09:10:46.748Z,23.25
2018-07-23T09:11:54.780Z,23.33
2018-07-23T09:13:03.088Z,23.42
2018-07-23T09:14:10.905Z,23.29
2018-07-23T09:15:18.973Z,22.88
2018-07-23T09:16:27.056Z,22.86
2018-07-23T09:17:35.376Z,22.65
2018-07-23T09:18:43.219Z,22.49
2018-07-23T09:19:51.290Z,22.12
2018-07-23T09:20:59.365Z,21.84
2018-07-23T09:22:07.422Z,21.63
2018-07-23T09:23:15.487Z,21.45
2018-07-23T09:24:23.591Z,21.29
2018-07-23T09:25:31.866Z,21.19
2018-07-23T09:26:42.745Z,21.14
2018-07-23T09:27:51.297Z,21.29
2018-07-23T09:29:02.327Z,21.30
2018-07-23T09:30:10.417Z,21.32
2018-07-23T09:32:35.603Z,21.48
2018-07-23T09:33:43.779Z,21.58
2018-07-23T09:34:51.753Z,21.63
2018-07-23T09:35:59.854Z,21.66
2018-07-23T09:37:08.036Z,21.72
2018-07-23T09:38:16.347Z,21.81
2018-07-23T09:39:24.074Z,21.80
2018-07-23T09:40:32.154Z,21.74
2018-07-23T09:41:40.222Z,21.69
2018-07-23T09:42:48.278Z,21.74
2018-07-23T09:43:56.353Z,21.62
2018-07-23T09:45:04.417Z,21.72
2018-07-23T09:46:12.491Z,21.72
2018-07-23T09:47:20.607Z,21.66
2018-07-23T09:48:28.652Z,21.56
2018-07-23T09:49:36.703Z,21.50
2018-07-23T09:50:44.786Z,21.35
2018-07-23T09:51:52.851Z,21.45
2018-07-23T09:53:00.924Z,21.50
2018-07-23T09:54:09.002Z,21.59
2018-07-23T09:55:17.079Z,21.65
2018-07-23T09:56:25.155Z,21.78
2018-07-23T09:57:33.230Z,21.91
2018-07-23T09:58:41.289Z,21.97
2018-07-23T09:59:49.354Z,21.99
2018-07-23T10:00:57.434Z,21.99
2018-07-23T10:02:05.506Z,21.89
2018-07-23T10:03:13.667Z,22.07
2018-07-23T10:04:21.672Z,22.18
2018-07-23T10:05:29.784Z,22.08
2018-07-23T10:06:37.786Z,22.10
2018-07-23T10:07:46.087Z,22.07
2018-07-23T10:08:54.136Z,22.14
2018-07-23T10:10:02.287Z,22.25
2018-07-23T10:11:10.283Z,22.16
2018-07-23T10:12:18.339Z,22.23
2018-07-23T10:13:26.432Z,22.31
2018-07-23T10:14:34.517Z,22.38
2018-07-23T10:15:42.586Z,22.38
2018-07-23T10:16:50.627Z,22.46
2018-07-23T10:17:58.707Z,22.49
2018-07-23T10:19:09.405Z,22.52
2018-07-23T10:20:17.478Z,22.47
2018-07-23T10:21:25.523Z,22.49
2018-07-23T10:22:33.650Z,22.55
2018-07-23T10:23:41.951Z,22.47
2018-07-23T10:24:49.848Z,22.67
2018-07-23T10:25:57.826Z,22.86
2018-07-23T10:27:05.899Z,22.96
2018-07-23T10:28:14.089Z,23.13
2018-07-23T10:29:22.112Z,23.17
2018-07-23T10:30:30.116Z,23.33
2018-07-23T10:31:38.536Z,23.42
2018-07-23T10:32:46.252Z,23.52
2018-07-23T10:33:54.609Z,23.67
2018-07-23T10:35:02.718Z,23.55
2018-07-23T10:36:10.493Z,23.28
2018-07-23T10:37:18.549Z,23.13
2018-07-23T10:38:26.621Z,23.21
2018-07-23T10:39:34.733Z,23.10
2018-07-23T10:40:42.792Z,22.95
2018-07-23T10:41:51.086Z,22.78
2018-07-23T10:42:58.905Z,22.80
2018-07-23T10:44:07.301Z,22.78
2018-07-23T10:45:15.052Z,22.62
2018-07-23T10:46:23.128Z,22.58
2018-07-23T10:47:31.224Z,22.59
2018-07-23T10:48:39.259Z,22.63
2018-07-23T10:49:47.338Z,22.65
2018-07-23T10:50:55.456Z,22.80
2018-07-23T10:52:03.476Z,22.81
2018-07-23T10:53:11.564Z,22.84
2018-07-23T10:54:19.637Z,22.81
2018-07-23T10:55:27.716Z,22.83
2018-07-23T10:56:35.772Z,23.18
2018-07-23T10:57:43.857Z,23.33
2018-07-23T10:58:51.927Z,23.52
2018-07-23T10:59:59.997Z,23.66
2018-07-23T11:01:08.124Z,23.74
2018-07-23T11:02:16.147Z,23.73
2018-07-23T11:03:24.208Z,23.74
2018-07-23T11:04:32.377Z,23.92
2018-07-23T11:05:40.362Z,24.04
2018-07-23T11:06:48.428Z,24.22
2018-07-23T11:07:56.512Z,24.37
2018-07-23T11:09:04.582Z,24.55
2018-07-23T11:10:12.663Z,24.56
2018-07-23T11:11:20.759Z,24.75
2018-07-23T11:12:28.874Z,24.81
2018-07-23T11:13:36.975Z,24.86
2018-07-23T11:14:44.932Z,24.93
2018-07-23T11:15:53.015Z,24.94
2018-07-23T11:17:01.089Z,24.93
2018-07-23T11:18:09.157Z,25.12
2018-07-23T11:19:17.321Z,25.06
2018-07-23T11:20:25.310Z,25.15
2018-07-23T11:21:33.377Z,25.31
2018-07-23T11:22:41.443Z,25.39
2018-07-23T11:23:49.525Z,25.34
2018-07-23T11:24:57.611Z,25.12
2018-07-23T11:26:05.965Z,25.15
2018-07-23T11:27:13.743Z,25.06
2018-07-23T11:28:21.844Z,24.96
2018-07-23T11:29:29.920Z,24.84
2018-07-23T11:30:37.982Z,24.77
2018-07-23T11:31:46.071Z,24.69
2018-07-23T11:32:54.114Z,24.61
2018-07-23T11:34:02.215Z,24.58
2018-07-23T11:35:10.451Z,24.62
2018-07-23T11:36:18.541Z,24.61
2018-07-23T11:37:26.603Z,24.59
2018-07-23T11:38:34.749Z,24.58
2018-07-23T11:39:42.749Z,24.71
2018-07-23T11:40:50.830Z,24.62
2018-07-23T11:41:58.904Z,24.69
2018-07-23T11:43:06.996Z,24.84
2018-07-23T11:44:15.040Z,25.09
2018-07-23T11:45:23.193Z,25.11
2018-07-23T11:46:31.239Z,25.14
2018-07-23T11:47:39.273Z,25.19
2018-07-23T11:48:47.341Z,25.36
2018-07-23T11:49:55.453Z,25.39
2018-07-23T11:51:03.505Z,25.31
2018-07-23T11:52:14.356Z,25.36
2018-07-23T11:53:19.717Z,25.31
2018-07-23T11:54:27.907Z,25.18
2018-07-23T11:55:36.191Z,25.26
2018-07-23T11:56:44.314Z,25.18
2018-07-23T11:57:52.346Z,25.19
2018-07-23T11:59:00.451Z,25.26
2018-07-23T12:00:08.487Z,25.16
2018-07-23T12:01:16.667Z,25.30
2018-07-23T12:02:24.619Z,25.33
2018-07-23T12:03:32.716Z,25.31
2018-07-23T12:04:40.989Z,25.44
2018-07-23T12:05:48.865Z,25.48
2018-07-23T12:06:56.974Z,25.41
2018-07-23T12:08:04.997Z,25.62
2018-07-23T12:09:13.083Z,25.73
2018-07-23T12:10:21.154Z,25.73
2018-07-23T12:11:29.509Z,25.76
2018-07-23T12:12:37.487Z,25.80
2018-07-23T12:13:46.756Z,25.95
2018-07-23T12:14:54.852Z,25.96
2018-07-23T12:16:02.939Z,26.19
2018-07-23T12:17:10.986Z,26.18
2018-07-23T12:18:19.371Z,26.26
2018-07-23T12:19:27.428Z,26.18
2018-07-23T12:20:35.224Z,26.08
2018-07-23T12:21:43.638Z,26.10
2018-07-23T12:22:51.362Z,26.18
2018-07-23T12:23:59.422Z,26.04
2018-07-23T12:25:07.510Z,26.19
2018-07-23T12:26:15.569Z,26.22
2018-07-23T12:27:23.928Z,26.30
2018-07-23T12:28:31.731Z,26.39
2018-07-23T12:30:55.099Z,26.45
2018-07-23T12:32:02.811Z,26.49
2018-07-23T12:33:10.881Z,26.44
2018-07-23T12:34:18.946Z,26.52
2018-07-23T12:35:27.015Z,26.45
2018-07-23T12:36:35.132Z,26.31
2018-07-23T12:37:43.195Z,26.41
2018-07-23T12:38:51.572Z,26.24
2018-07-23T12:39:59.359Z,26.15
2018-07-23T12:41:08.408Z,26.26
2018-07-23T12:42:15.464Z,26.36
2018-07-23T12:43:23.544Z,26.42
2018-07-23T12:44:31.618Z,26.36
2018-07-23T12:45:39.680Z,26.31
2018-07-23T12:46:47.770Z,26.39
2018-07-23T12:47:56.040Z,26.34
2018-07-23T12:49:04.125Z,26.16
2018-07-23T12:50:12.443Z,26.15
2018-07-23T12:51:20.258Z,26.08
2018-07-23T12:52:28.545Z,26.07
2018-07-23T12:53:36.619Z,26.29
2018-07-23T12:54:44.687Z,26.34
2018-07-23T12:55:52.756Z,26.44
2018-07-23T12:57:00.842Z,26.22
2018-07-23T12:58:08.913Z,26.27
2018-07-23T12:59:16.995Z,26.22
2018-07-23T13:00:25.054Z,26.16
2018-07-23T13:01:33.123Z,26.16
2018-07-23T13:02:41.308Z,26.13
2018-07-23T13:03:49.274Z,26.13
2018-07-23T13:04:57.343Z,26.33
2018-07-23T13:06:05.400Z,26.34
2018-07-23T13:07:13.489Z,26.27
2018-07-23T13:08:21.580Z,26.15
2018-07-23T13:09:29.653Z,26.04
2018-07-23T13:10:37.955Z,26.11
2018-07-23T13:11:46.063Z,26.26
2018-07-23T13:12:54.337Z,26.45
2018-07-23T13:14:02.380Z,26.61
2018-07-23T13:15:10.637Z,26.51
2018-07-23T13:16:18.695Z,26.37
2018-07-23T13:17:27.148Z,26.26
2018-07-23T13:18:35.099Z,26.19
2018-07-23T13:19:43.500Z,26.22
2018-07-23T13:20:51.201Z,26.01
2018-07-23T13:21:59.297Z,25.93
2018-07-23T13:23:11.583Z,25.99
2018-07-23T13:24:19.668Z,25.91
2018-07-23T13:25:27.836Z,25.86
2018-07-23T13:26:35.815Z,25.71
2018-07-23T13:27:43.874Z,25.58
2018-07-23T13:28:51.945Z,25.44
2018-07-23T13:30:00.018Z,25.41
2018-07-23T13:31:08.116Z,25.37
2018-07-23T13:32:16.212Z,25.37
2018-07-23T13:33:24.334Z,25.21
2018-07-23T13:34:32.337Z,25.33
2018-07-23T13:35:40.518Z,25.43
2018-07-23T13:36:48.472Z,25.30
2018-07-23T13:37:56.615Z,25.26
2018-07-23T13:39:04.647Z,25.26
2018-07-23T13:40:12.702Z,25.14
2018-07-23T13:41:20.766Z,25.07
2018-07-23T13:42:28.929Z,25.04
2018-07-23T13:43:36.940Z,24.99
2018-07-23T13:44:44.989Z,24.89
2018-07-23T13:45:53.072Z,24.96
2018-07-23T13:47:01.140Z,24.96
2018-07-23T13:48:09.227Z,24.96
2018-07-23T13:49:17.269Z,24.92
2018-07-23T13:50:25.336Z,25.01
2018-07-23T13:51:33.434Z,24.88
2018-07-23T13:52:41.490Z,25.09
2018-07-23T13:53:49.580Z,25.07
2018-07-23T13:54:57.895Z,25.26
2018-07-23T13:56:05.809Z,25.40
2018-07-23T13:57:13.800Z,25.56
2018-07-23T13:58:21.918Z,25.73
2018-07-23T13:59:29.945Z,25.78
2018-07-23T14:00:37.998Z,25.86
2018-07-23T14:01:46.089Z,25.91
2018-07-23T14:02:54.135Z,26.03
2018-07-23T14:04:02.518Z,25.99
2018-07-23T14:05:10.547Z,25.93
2018-07-23T14:06:18.389Z,26.06
2018-07-23T14:07:27.526Z,26.04
2018-07-23T14:08:34.531Z,26.10
2018-07-23T14:09:42.592Z,25.86
2018-07-23T14:10:50.659Z,25.86
2018-07-23T14:11:58.748Z,25.85
2018-07-23T14:13:07.009Z,25.93
2018-07-23T14:14:15.077Z,25.93
2018-07-23T14:15:23.154Z,25.98
2018-07-23T14:16:31.237Z,25.93
2018-07-23T14:17:39.581Z,25.93
2018-07-23T14:18:47.383Z,25.93
2018-07-23T14:19:55.463Z,25.86
2018-07-23T14:21:03.534Z,25.91
2018-07-23T14:22:11.615Z,25.93
2018-07-23T14:23:19.662Z,25.81
2018-07-23T14:24:27.762Z,25.80
2018-07-23T14:25:35.818Z,25.85
2018-07-23T14:26:43.900Z,25.95
2018-07-23T14:27:51.959Z,25.96
2018-07-23T14:29:00.150Z,26.04
2018-07-23T14:30:08.130Z,26.04
2018-07-23T14:31:16.266Z,26.01
2018-07-23T14:32:24.256Z,26.08
2018-07-23T14:33:32.343Z,26.01
2018-07-23T14:34:40.421Z,26.06
2018-07-23T14:35:48.479Z,26.15
2018-07-23T14:36:56.566Z,26.10
2018-07-23T14:38:04.608Z,26.27
2018-07-23T14:39:12.700Z,26.33
2018-07-23T14:40:21.150Z,26.29